Time;durP1;ratioP1;P1;durP2;ratioP2;P2;SDS_P1;SDS_P2;PMS_P1;PMS_P2;Temp;Humidity;BMP_temperature;BMP_pressure;BME280_temperature;BME280_humidity;BME280_pressure;Samples;Min_cycle;Max_cycle;Signal;HPM_P1;HPM_P2
2023/12/10 00:02:26;;;;;;;;;;;;;;;;;;6248572;22;19920;-70
2023/12/10 00:04:52;;;;;;;;;;;;;;;;;;6248030;23;19919;-70
2023/12/10 00:07:19;;;;;;;;;;;;;;;;;;6247623;23;19942;-70
2023/12/10 00:09:46;;;;;;;;;;;;;;;;;;6247630;23;19919;-70
2023/12/10 00:12:13;;;;;;;;;;;;;;;;;;6247105;22;20243;-70
2023/12/10 00:14:40;;;;;;;;;;;;;;;;;;6247714;23;19926;-70
2023/12/10 00:17:07;;;;;;;;;;;;;;;;;;6247904;23;19920;-70
2023/12/10 00:19:34;;;;;;;;;;;;;;;;;;6248052;23;19920;-70
2023/12/10 00:22:01;;;;;;;;;;;;;;;;;;6247363;22;19943;-69
2023/12/10 00:24:28;;;;;;;;;;;;;;;;;;6247427;23;19920;-68
2023/12/10 00:26:55;;;;;;;;;;;;;;;;;;6247397;23;19920;-69
2023/12/10 06:17:46;;;;;;;;;;;;;;;;;;6246039;23;20294;-71
2023/12/10 06:20:13;;;;;;;;;;;;;;;;;;6246510;23;20343;-71
2023/12/10 06:22:41;;;;;;;;;;;;;;;;;;6248969;23;19927;-70
2023/12/10 06:25:08;;;;;;;;;;;;;;;;;;6246589;23;19920;-71
2023/12/10 06:27:35;;;;;;;;;;;;;;;;;;6246678;23;19982;-71
2023/12/10 06:30:02;;;;;;;;;;;;;;;;;;6247436;23;19919;-70
2023/12/10 06:32:29;;;;;;;;;;;;;;;;;;6246276;23;20254;-71
2023/12/10 06:34:56;;;;;;;;;;;;;;;;;;6246637;23;19920;-70
2023/12/10 06:37:23;;;;;;;;;;;;;;;;;;6246950;23;19920;-70
2023/12/10 06:39:50;;;;;;;;;;;;;;;;;;6248527;23;19927;-71
2023/12/10 06:42:17;;;;;;;;;;;;;;;;;;6248618;23;19919;-71
2023/12/10 06:44:44;;;;;;;;;;;;;;;;;;6248077;23;19919;-71
2023/12/10 06:47:11;;;;;;;;;;;;;;;;;;6248479;23;19966;-71
2023/12/10 06:49:38;;;;;;;;;;;;;;;;;;6249650;23;19920;-72
2023/12/10 06:52:05;;;;;;;;;;;;;;;;;;6248540;23;19919;-71
2023/12/10 06:54:32;;;;;;;;;;;;;;;;;;6247987;23;20339;-71
2023/12/10 06:56:59;;;;;;;;;;;;;;;;;;6248358;23;20092;-71
2023/12/10 06:59:26;;;;;;;;;;;;;;;;;;6248472;23;19919;-71
2023/12/10 07:01:52;;;;;;;;;;;;;;;;;;6248067;23;20343;-71
2023/12/10 07:04:19;;;;;;;;;;;;;;;;;;6248857;23;19924;-71
2023/12/10 07:06:46;;;;;;;;;;;;;;;;;;6248705;23;19927;-71
2023/12/10 07:09:13;;;;;;;;;;;;;;;;;;6248487;23;19920;-71
2023/12/10 07:11:40;;;;;;;;;;;;;;;;;;6248216;23;19927;-71
2023/12/10 07:14:07;;;;;;;;;;;;;;;;;;6247971;23;20343;-72
2023/12/10 07:16:34;;;;;;;;;;;;;;;;;;6247755;23;19920;-71
2023/12/10 07:19:01;;;;;;;;;;;;;;;;;;6248327;23;19927;-71
2023/12/10 07:21:27;;;;;;;;;;;;;;;;;;6248142;23;19923;-71
2023/12/10 07:23:54;;;;;;;;;;;;;;;;;;6247711;23;19923;-71
2023/12/10 07:26:21;;;;;;;;;;;;;;;;;;6248167;23;19919;-69
2023/12/10 07:28:48;;;;;;;;;;;;;;;;;;6248088;23;19919;-70
2023/12/10 07:31:15;;;;;;;;;;;;;;;;;;6247826;23;20339;-70
2023/12/10 07:33:42;;;;;;;;;;;;;;;;;;6248171;23;19919;-70
2023/12/10 07:36:09;;;;;;;;;;;;;;;;;;6247441;23;20274;-70
2023/12/10 07:38:36;;;;;;;;;;;;;;;;;;6248094;23;19920;-70
2023/12/10 07:41:04;;;;;;;;;;;;;;;;;;6248112;23;19920;-70
2023/12/10 07:43:31;;;;;;;;;;;;;;;;;;6248013;23;19965;-70
2023/12/10 07:45:58;;;;;;;;;;;;;;;;;;6247479;23;19920;-70
2023/12/10 07:48:25;;;;;;;;;;;;;;;;;;6247923;23;19927;-70
2023/12/10 07:50:52;;;;;;;;;;;;;;;;;;6248059;23;20292;-70
2023/12/10 07:53:18;;;;;;;;;;;;;;;;;;6248064;23;20339;-70
2023/12/10 07:55:45;;;;;;;;;;;;;;;;;;6247910;23;19926;-72
2023/12/10 07:58:12;;;;;;;;;;;;;;;;;;6247882;23;19920;-72
2023/12/10 08:00:40;;;;;;;;;;;;;;;;;;6247862;23;20037;-70
2023/12/10 08:03:07;;;;;;;;;;;;;;;;;;6253859;23;19920;-69
2023/12/10 08:05:33;;;;;;;;;;;;;;;;;;6260270;23;19942;-72
2023/12/10 08:08:03;;;;;;;;;;;;;;;;;;6260987;23;19920;-71
2023/12/10 08:10:29;;;;;;;;;;;;;;;;;;6261437;23;19923;-72
2023/12/10 08:12:56;;;;;;;;;;;;;;;;;;6257172;23;20338;-71
2023/12/10 08:15:23;;;;;;;;;;;;;;;;;;6248403;23;19926;-71
2023/12/10 08:17:50;;;;;;;;;;;;;;;;;;6247607;23;19923;-71
2023/12/10 08:20:17;;;;;;;;;;;;;;;;;;6248009;23;19943;-71
2023/12/10 08:22:44;;;;;;;;;;;;;;;;;;6247915;23;19927;-71
2023/12/10 08:25:11;;;;;;;;;;;;;;;;;;6247687;23;19920;-73
2023/12/10 08:27:38;;;;;;;;;;;;;;;;;;6247303;23;20228;-73
2023/12/10 08:30:05;;;;;;;;;;;;;;;;;;6247817;23;19926;-73
2023/12/10 08:32:32;;;;;;;;;;;;;;;;;;6247618;23;19926;-72
2023/12/10 08:34:58;;;;;;;;;;;;;;;;;;6247395;23;19920;-73
2023/12/10 08:37:25;;;;;;;;;;;;;;;;;;6247385;23;19927;-72
2023/12/10 08:39:52;;;;;;;;;;;;;;;;;;6247118;23;20347;-72
2023/12/10 08:42:19;;;;;;;;;;;;;;;;;;6247702;23;19927;-71
2023/12/10 08:44:46;;;;;;;;;;;;;;;;;;6247988;23;19977;-73
2023/12/10 08:47:13;;;;;;;;;;;;;;;;;;6247626;23;19919;-72
2023/12/10 08:49:40;;;;;;;;;;;;;;;;;;6247803;23;19924;-72
2023/12/10 08:52:07;;;;;;;;;;;;;;;;;;6247730;23;19930;-72
2023/12/10 08:54:34;;;;;;;;;;;;;;;;;;6247719;23;19941;-71
2023/12/10 08:57:01;;;;;;;;;;;;;;;;;;6247439;23;19923;-72
2023/12/10 08:59:28;;;;;;;;;;;;;;;;;;6247290;23;19919;-72
2023/12/10 09:01:55;;;;;;;;;;;;;;;;;;6247284;23;19919;-71
2023/12/10 09:04:21;;;;;;;;;;;;;;;;;;6247732;23;19920;-72
2023/12/10 09:06:48;;;;;;;;;;;;;;;;;;6247266;23;19926;-72
2023/12/10 09:09:15;;;;;;;;;;;;;;;;;;6247562;23;19926;-72
2023/12/10 09:11:42;;;;;;;;;;;;;;;;;;6248111;23;19920;-75
2023/12/10 09:14:11;;;;;;;;;;;;;;;;;;6247786;23;19920;-74
2023/12/10 09:16:37;;;;;;;;;;;;;;;;;;6247378;23;19926;-73
2023/12/10 09:19:04;;;;;;;;;;;;;;;;;;6247523;23;19920;-72
2023/12/10 09:21:31;;;;;;;;;;;;;;;;;;6247408;23;19927;-73
2023/12/10 09:23:58;;;;;;;;;;;;;;;;;;6247528;23;19955;-72
2023/12/10 09:26:25;;;;;;;;;;;;;;;;;;6247066;23;19941;-72
2023/12/10 09:28:53;;;;;;;;;;;;;;;;;;6247153;23;19920;-73
2023/12/10 09:31:19;;;;;;;;;;;;;;;;;;6247098;23;19919;-72
2023/12/10 09:33:46;;;;;;;;;;;;;;;;;;6246938;23;19920;-73
2023/12/10 09:36:13;;;;;;;;;;;;;;;;;;6246994;23;19923;-72
2023/12/10 09:38:40;;;;;;;;;;;;;;;;;;6246777;23;19923;-71
2023/12/10 09:41:07;;;;;;;;;;;;;;;;;;6246697;23;20255;-72
2023/12/10 09:43:34;;;;;;;;;;;;;;;;;;6247011;23;19920;-72
2023/12/10 09:46:01;;;;;;;;;;;;;;;;;;6246935;23;19930;-71
2023/12/10 09:48:28;;;;;;;;;;;;;;;;;;6247056;23;19920;-72
2023/12/10 09:50:55;;;;;;;;;;;;;;;;;;6247040;23;19927;-72
2023/12/10 09:53:22;;;;;;;;;;;;;;;;;;6246478;23;20358;-72
2023/12/10 09:55:48;;;;;;;;;;;;;;;;;;6246492;23;20339;-74
2023/12/10 09:58:15;;;;;;;;;;;;;;;;;;6246844;23;19920;-72
2023/12/10 10:00:42;;;;;;;;;;;;;;;;;;6246669;23;19926;-72
2023/12/10 10:03:09;;;;;;;;;;;;;;;;;;6246831;23;19919;-73
2023/12/10 10:05:36;;;;;;;;;;;;;;;;;;6246712;23;19927;-72
2023/12/10 10:08:03;;;;;;;;;;;;;;;;;;6246912;23;19920;-72
2023/12/10 10:10:30;;;;;;;;;;;;;;;;;;6246987;23;19920;-73
2023/12/10 10:12:58;;;;;;;;;;;;;;;;;;6249267;23;19919;-72
2023/12/10 10:15:25;;;;;;;;;;;;;;;;;;6248759;23;19919;-71
2023/12/10 10:17:52;;;;;;;;;;;;;;;;;;6248443;23;19924;-72
2023/12/10 10:20:18;;;;;;;;;;;;;;;;;;6248840;23;19919;-72
2023/12/10 10:22:45;;;;;;;;;;;;;;;;;;6249078;23;19919;-71
2023/12/10 10:25:12;;;;;;;;;;;;;;;;;;6248731;23;19927;-71
2023/12/10 10:27:39;;;;;;;;;;;;;;;;;;6249003;23;19966;-72
2023/12/10 10:30:06;;;;;;;;;;;;;;;;;;6248366;23;20331;-72
2023/12/10 10:32:33;;;;;;;;;;;;;;;;;;6248682;23;19919;-71
2023/12/10 10:35:00;;;;;;;;;;;;;;;;;;6248141;23;20366;-70
2023/12/10 10:37:27;;;;;;;;;;;;;;;;;;6248385;23;19927;-71
2023/12/10 10:39:54;;;;;;;;;;;;;;;;;;6248586;23;20011;-70
2023/12/10 10:42:21;;;;;;;;;;;;;;;;;;6248577;23;19920;-71
2023/12/10 10:44:48;;;;;;;;;;;;;;;;;;6248498;23;19942;-72
2023/12/10 10:47:15;;;;;;;;;;;;;;;;;;6248630;23;19924;-70
2023/12/10 10:49:42;;;;;;;;;;;;;;;;;;6248843;23;19943;-71
2023/12/10 10:52:09;;;;;;;;;;;;;;;;;;6249070;23;19919;-71
2023/12/10 10:54:36;;;;;;;;;;;;;;;;;;6248638;23;20355;-71
2023/12/10 10:57:03;;;;;;;;;;;;;;;;;;6248316;23;20374;-70
2023/12/10 10:59:30;;;;;;;;;;;;;;;;;;6248893;23;19920;-69
2023/12/10 11:01:57;;;;;;;;;;;;;;;;;;6248806;23;19919;-69
2023/12/10 11:04:24;;;;;;;;;;;;;;;;;;6248647;23;19927;-70
2023/12/10 11:06:53;;;;;;;;;;;;;;;;;;6248536;23;19920;-70
2023/12/10 11:09:20;;;;;;;;;;;;;;;;;;6248350;23;19926;-71
2023/12/10 11:11:47;;;;;;;;;;;;;;;;;;6248312;23;19982;-71
2023/12/10 11:14:14;;;;;;;;;;;;;;;;;;6248279;23;19920;-71
2023/12/10 11:16:41;;;;;;;;;;;;;;;;;;6247955;23;19978;-72
2023/12/10 11:19:07;;;;;;;;;;;;;;;;;;6248164;23;20225;-71
2023/12/10 11:21:35;;;;;;;;;;;;;;;;;;6248326;23;19920;-71
2023/12/10 11:24:02;;;;;;;;;;;;;;;;;;6247753;23;19923;-71
2023/12/10 11:26:28;;;;;;;;;;;;;;;;;;6248136;23;19919;-71
2023/12/10 11:28:55;;;;;;;;;;;;;;;;;;6248322;23;19920;-70
2023/12/10 11:31:23;;;;;;;;;;;;;;;;;;6248039;23;19920;-71
2023/12/10 11:33:50;;;;;;;;;;;;;;;;;;6248155;23;19920;-71
2023/12/10 11:36:17;;;;;;;;;;;;;;;;;;6248003;23;19920;-70
2023/12/10 11:38:44;;;;;;;;;;;;;;;;;;6247811;23;19919;-72
2023/12/10 11:41:11;;;;;;;;;;;;;;;;;;6247526;23;20290;-71
2023/12/10 11:43:38;;;;;;;;;;;;;;;;;;6248011;23;19926;-71
2023/12/10 11:46:05;;;;;;;;;;;;;;;;;;6247584;23;20328;-71
2023/12/10 11:48:31;;;;;;;;;;;;;;;;;;6247989;23;19926;-71
2023/12/10 11:50:58;;;;;;;;;;;;;;;;;;6247571;23;20334;-71
2023/12/10 11:53:25;;;;;;;;;;;;;;;;;;6248011;23;19926;-72
2023/12/10 11:55:52;;;;;;;;;;;;;;;;;;6247823;23;19923;-72
2023/12/10 11:58:19;;;;;;;;;;;;;;;;;;6247428;23;19970;-71
2023/12/10 12:00:46;;;;;;;;;;;;;;;;;;6248007;23;19919;-71
2023/12/10 12:03:13;;;;;;;;;;;;;;;;;;6249034;23;19920;-70
2023/12/10 12:05:40;;;;;;;;;;;;;;;;;;6247769;23;19930;-71
2023/12/10 12:08:07;;;;;;;;;;;;;;;;;;6248211;23;19920;-71
2023/12/10 12:10:34;;;;;;;;;;;;;;;;;;6247837;23;19965;-72
2023/12/10 12:13:01;;;;;;;;;;;;;;;;;;6247693;23;19927;-71
2023/12/10 12:15:28;;;;;;;;;;;;;;;;;;6247710;23;19919;-70
2023/12/10 12:17:55;;;;;;;;;;;;;;;;;;6247029;23;20346;-71
2023/12/10 12:20:24;;;;;;;;;;;;;;;;;;6247645;23;19924;-71
2023/12/10 12:22:51;;;;;;;;;;;;;;;;;;6247655;23;19954;-71
2023/12/10 12:25:18;;;;;;;;;;;;;;;;;;6247411;23;19920;-71
2023/12/10 12:27:44;;;;;;;;;;;;;;;;;;6247489;23;19952;-70
2023/12/10 12:30:11;;;;;;;;;;;;;;;;;;6247102;23;19919;-70
2023/12/10 12:32:38;;;;;;;;;;;;;;;;;;6247501;23;19923;-70
2023/12/10 12:35:05;;;;;;;;;;;;;;;;;;6246834;23;19970;-70
2023/12/10 12:37:31;;;;;;;;;;;;;;;;;;6247395;23;19920;-70
2023/12/10 12:39:58;;;;;;;;;;;;;;;;;;6247388;23;19927;-69
2023/12/10 12:42:25;;;;;;;;;;;;;;;;;;6247379;23;19926;-69
2023/12/10 12:44:52;;;;;;;;;;;;;;;;;;6247428;23;19919;-70
2023/12/10 12:47:19;;;;;;;;;;;;;;;;;;6247431;23;19920;-71
2023/12/10 12:49:46;;;;;;;;;;;;;;;;;;6247429;23;20263;-74
2023/12/10 12:52:14;;;;;;;;;;;;;;;;;;6247174;23;19927;-70
2023/12/10 12:54:41;;;;;;;;;;;;;;;;;;6247179;23;19919;-70
2023/12/10 12:57:08;;;;;;;;;;;;;;;;;;6247271;23;19919;-70
2023/12/10 12:59:35;;;;;;;;;;;;;;;;;;6247574;23;19920;-70
2023/12/10 13:02:02;;;;;;;;;;;;;;;;;;6246982;23;19926;-71
2023/12/10 13:04:29;;;;;;;;;;;;;;;;;;6246307;22;20261;-73
2023/12/10 13:06:56;;;;;;;;;;;;;;;;;;6247538;23;19951;-74
2023/12/10 13:09:22;;;;;;;;;;;;;;;;;;6247713;23;19926;-73
2023/12/10 13:11:49;;;;;;;;;;;;;;;;;;6247961;23;19919;-74
2023/12/10 13:14:16;;;;;;;;;;;;;;;;;;6247697;23;19926;-74
2023/12/10 13:16:43;;;;;;;;;;;;;;;;;;6247806;23;19927;-73
2023/12/10 13:19:10;;;;;;;;;;;;;;;;;;6247679;23;19927;-73
2023/12/10 13:21:37;;;;;;;;;;;;;;;;;;6247480;23;19923;-72
2023/12/10 13:24:04;;;;;;;;;;;;;;;;;;6247632;23;19973;-72
2023/12/10 13:26:31;;;;;;;;;;;;;;;;;;6247887;23;19923;-74
2023/12/10 13:28:58;;;;;;;;;;;;;;;;;;6247001;23;20251;-72
2023/12/10 13:31:25;;;;;;;;;;;;;;;;;;6247237;23;19926;-72
2023/12/10 13:33:52;;;;;;;;;;;;;;;;;;6246966;23;20365;-71
2023/12/10 13:36:19;;;;;;;;;;;;;;;;;;6246999;23;20274;-71
2023/12/10 13:38:46;;;;;;;;;;;;;;;;;;6247419;23;19919;-72
2023/12/10 13:41:13;;;;;;;;;;;;;;;;;;6247482;23;19926;-72
2023/12/10 13:43:40;;;;;;;;;;;;;;;;;;6247230;23;19923;-72
2023/12/10 13:46:07;;;;;;;;;;;;;;;;;;6247247;23;19919;-72
2023/12/10 13:48:34;;;;;;;;;;;;;;;;;;6247468;23;19926;-72
2023/12/10 13:51:01;;;;;;;;;;;;;;;;;;6247382;23;20229;-72
2023/12/10 13:53:28;;;;;;;;;;;;;;;;;;6247673;23;19920;-72
2023/12/10 13:55:55;;;;;;;;;;;;;;;;;;6247315;23;19927;-72
2023/12/10 13:58:22;;;;;;;;;;;;;;;;;;6247452;23;19919;-72
2023/12/10 14:00:49;;;;;;;;;;;;;;;;;;6247554;23;19920;-72
2023/12/10 14:03:16;;;;;;;;;;;;;;;;;;6247193;23;19927;-72
2023/12/10 14:05:43;;;;;;;;;;;;;;;;;;6247675;23;19924;-72
2023/12/10 14:08:10;;;;;;;;;;;;;;;;;;6247492;23;19930;-72
2023/12/10 14:10:36;;;;;;;;;;;;;;;;;;6247019;23;20258;-72
2023/12/10 14:13:03;;;;;;;;;;;;;;;;;;6247322;23;19920;-72
2023/12/10 14:15:30;;;;;;;;;;;;;;;;;;6246932;23;19920;-72
2023/12/10 14:17:57;;;;;;;;;;;;;;;;;;6247121;23;19927;-72
2023/12/10 14:20:24;;;;;;;;;;;;;;;;;;6247354;23;19926;-72
2023/12/10 14:22:51;;;;;;;;;;;;;;;;;;6247242;23;19923;-72
2023/12/10 14:25:18;;;;;;;;;;;;;;;;;;6246853;23;19919;-73
2023/12/10 14:27:46;;;;;;;;;;;;;;;;;;6247040;23;19995;-73
2023/12/10 14:30:13;;;;;;;;;;;;;;;;;;6247032;23;19919;-73
2023/12/10 14:32:41;;;;;;;;;;;;;;;;;;6247134;23;19990;-73
2023/12/10 14:35:07;;;;;;;;;;;;;;;;;;6247052;23;19994;-72
2023/12/10 14:37:34;;;;;;;;;;;;;;;;;;6249694;23;19919;-72
2023/12/10 14:40:01;;;;;;;;;;;;;;;;;;6247976;23;19926;-72
2023/12/10 14:42:28;;;;;;;;;;;;;;;;;;6247271;23;19920;-72
2023/12/10 14:44:55;;;;;;;;;;;;;;;;;;6246913;23;19926;-72
2023/12/10 14:47:23;;;;;;;;;;;;;;;;;;6247341;23;19920;-73
2023/12/10 14:49:50;;;;;;;;;;;;;;;;;;6247374;23;19923;-73
2023/12/10 14:52:17;;;;;;;;;;;;;;;;;;6247524;23;19919;-73
2023/12/10 14:54:43;;;;;;;;;;;;;;;;;;6247797;23;20255;-73
2023/12/10 14:57:10;;;;;;;;;;;;;;;;;;6247074;23;19927;-72
2023/12/10 14:59:37;;;;;;;;;;;;;;;;;;6248898;23;19919;-72
2023/12/10 15:02:04;;;;;;;;;;;;;;;;;;6249579;23;19919;-72
2023/12/10 15:04:31;;;;;;;;;;;;;;;;;;6251519;23;19927;-74
2023/12/10 15:06:58;;;;;;;;;;;;;;;;;;6250288;23;19961;-72
2023/12/10 15:09:25;;;;;;;;;;;;;;;;;;6249318;23;19923;-74
2023/12/10 15:11:52;;;;;;;;;;;;;;;;;;6248901;23;19926;-73
2023/12/10 15:14:22;;;;;;;;;;;;;;;;;;6248480;23;19919;-76
2023/12/10 15:16:49;;;;;;;;;;;;;;;;;;6249320;23;19927;-72
2023/12/10 15:19:16;;;;;;;;;;;;;;;;;;6248870;23;20259;-72
2023/12/10 15:21:43;;;;;;;;;;;;;;;;;;6249235;23;19926;-72
2023/12/10 15:24:10;;;;;;;;;;;;;;;;;;6251990;23;19927;-71
2023/12/10 15:26:37;;;;;;;;;;;;;;;;;;6250552;23;19923;-71
2023/12/10 15:29:03;;;;;;;;;;;;;;;;;;6249231;23;19970;-72
2023/12/10 15:31:30;;;;;;;;;;;;;;;;;;6249035;23;19924;-74
2023/12/10 15:33:57;;;;;;;;;;;;;;;;;;6248779;23;19927;-73
2023/12/10 15:36:24;;;;;;;;;;;;;;;;;;6250158;23;19920;-73
2023/12/10 15:38:51;;;;;;;;;;;;;;;;;;6249283;23;19959;-73
2023/12/10 15:41:19;;;;;;;;;;;;;;;;;;6250015;23;19919;-72
2023/12/10 15:43:46;;;;;;;;;;;;;;;;;;6250663;23;19951;-73
2023/12/10 15:46:13;;;;;;;;;;;;;;;;;;6250009;23;19950;-72
2023/12/10 15:48:40;;;;;;;;;;;;;;;;;;6250913;23;19930;-72
2023/12/10 15:51:07;;;;;;;;;;;;;;;;;;6248963;23;19994;-71
2023/12/10 15:53:34;;;;;;;;;;;;;;;;;;6250592;23;19919;-71
2023/12/10 15:56:01;;;;;;;;;;;;;;;;;;6249800;23;20343;-70
2023/12/10 15:58:28;;;;;;;;;;;;;;;;;;6249376;23;19920;-72
2023/12/10 16:00:55;;;;;;;;;;;;;;;;;;6249782;23;20266;-72
2023/12/10 16:03:23;;;;;;;;;;;;;;;;;;6249615;23;19942;-71
2023/12/10 16:05:50;;;;;;;;;;;;;;;;;;6250243;23;19926;-71
2023/12/10 16:08:17;;;;;;;;;;;;;;;;;;6249300;23;20259;-70
2023/12/10 16:10:44;;;;;;;;;;;;;;;;;;6248482;23;20233;-69
2023/12/10 16:13:11;;;;;;;;;;;;;;;;;;6248610;23;19955;-72
2023/12/10 16:15:38;;;;;;;;;;;;;;;;;;6249233;23;20263;-72
2023/12/10 16:18:06;;;;;;;;;;;;;;;;;;6250792;23;19965;-71
2023/12/10 16:20:33;;;;;;;;;;;;;;;;;;6250503;23;19946;-70
2023/12/10 16:23:01;;;;;;;;;;;;;;;;;;6254774;23;19939;-71
2023/12/10 16:25:28;;;;;;;;;;;;;;;;;;6248930;23;19920;-72
2023/12/10 16:27:55;;;;;;;;;;;;;;;;;;6248264;23;20319;-71
2023/12/10 16:30:23;;;;;;;;;;;;;;;;;;6249408;23;19927;-71
2023/12/10 16:32:50;;;;;;;;;;;;;;;;;;6249413;23;20335;-72
2023/12/10 16:35:17;;;;;;;;;;;;;;;;;;6250038;23;19958;-72
2023/12/10 16:37:44;;;;;;;;;;;;;;;;;;6249475;23;19927;-72
2023/12/10 16:40:11;;;;;;;;;;;;;;;;;;6249743;23;20354;-71
2023/12/10 16:42:38;;;;;;;;;;;;;;;;;;6249782;23;19942;-71
2023/12/10 16:45:05;;;;;;;;;;;;;;;;;;6249543;23;19935;-72
2023/12/10 16:47:32;;;;;;;;;;;;;;;;;;6249421;23;19995;-71
2023/12/10 16:49:59;;;;;;;;;;;;;;;;;;6250008;23;19927;-72
2023/12/10 16:52:27;;;;;;;;;;;;;;;;;;6249822;23;19995;-71
2023/12/10 16:54:54;;;;;;;;;;;;;;;;;;6249093;23;19946;-71
2023/12/10 16:57:21;;;;;;;;;;;;;;;;;;6248694;23;19924;-71
2023/12/10 16:59:48;;;;;;;;;;;;;;;;;;6248373;23;19920;-71
2023/12/10 17:02:15;;;;;;;;;;;;;;;;;;6249152;23;19919;-70
2023/12/10 17:04:42;;;;;;;;;;;;;;;;;;6249210;23;19926;-70
2023/12/10 17:07:10;;;;;;;;;;;;;;;;;;6248967;23;20228;-71
2023/12/10 17:09:37;;;;;;;;;;;;;;;;;;6248691;23;19920;-70
2023/12/10 17:12:04;;;;;;;;;;;;;;;;;;6249280;23;19926;-70
2023/12/10 17:14:30;;;;;;;;;;;;;;;;;;6249305;23;19946;-70
2023/12/10 17:16:57;;;;;;;;;;;;;;;;;;6248406;23;19920;-70
2023/12/10 17:19:24;;;;;;;;;;;;;;;;;;6249050;23;19923;-70
2023/12/10 17:21:51;;;;;;;;;;;;;;;;;;6248359;23;19920;-70
2023/12/10 17:24:18;;;;;;;;;;;;;;;;;;6248504;23;19927;-70
2023/12/10 17:26:45;;;;;;;;;;;;;;;;;;6247235;23;20228;-70
2023/12/10 17:29:12;;;;;;;;;;;;;;;;;;6247331;23;19995;-70
2023/12/10 17:31:39;;;;;;;;;;;;;;;;;;6247544;23;19942;-70
2023/12/10 17:34:06;;;;;;;;;;;;;;;;;;6247306;23;19919;-70
2023/12/10 17:36:33;;;;;;;;;;;;;;;;;;6247734;23;19919;-70
2023/12/10 17:39:00;;;;;;;;;;;;;;;;;;6247000;23;19920;-70
2023/12/10 17:41:27;;;;;;;;;;;;;;;;;;6247332;23;19920;-71
2023/12/10 17:43:54;;;;;;;;;;;;;;;;;;6247159;23;19927;-71
2023/12/10 17:46:21;;;;;;;;;;;;;;;;;;6247750;23;19923;-71
2023/12/10 17:48:49;;;;;;;;;;;;;;;;;;6247470;23;20321;-72
2023/12/10 17:51:16;;;;;;;;;;;;;;;;;;6247132;23;20353;-71
2023/12/10 17:53:44;;;;;;;;;;;;;;;;;;6247237;23;19919;-71
2023/12/10 17:56:11;;;;;;;;;;;;;;;;;;6247353;23;19973;-71
2023/12/10 17:58:38;;;;;;;;;;;;;;;;;;6247454;23;19920;-71
2023/12/10 18:01:05;;;;;;;;;;;;;;;;;;6247654;23;19920;-71
2023/12/10 18:03:32;;;;;;;;;;;;;;;;;;6247208;23;19982;-71
2023/12/10 18:05:59;;;;;;;;;;;;;;;;;;6248225;23;19927;-72
2023/12/10 18:08:26;;;;;;;;;;;;;;;;;;6248155;23;19919;-72
2023/12/10 18:10:53;;;;;;;;;;;;;;;;;;6247794;23;19919;-72
2023/12/10 18:13:20;;;;;;;;;;;;;;;;;;6247945;23;20346;-71
2023/12/10 18:15:47;;;;;;;;;;;;;;;;;;6247862;23;19926;-72
2023/12/10 18:18:14;;;;;;;;;;;;;;;;;;6248367;23;19927;-73
2023/12/10 18:20:42;;;;;;;;;;;;;;;;;;6248112;23;20331;-72
2023/12/10 18:23:08;;;;;;;;;;;;;;;;;;6248538;23;19947;-73
2023/12/10 18:25:35;;;;;;;;;;;;;;;;;;6248178;23;19920;-73
2023/12/10 18:28:02;;;;;;;;;;;;;;;;;;6249653;23;19919;-72
2023/12/10 18:30:30;;;;;;;;;;;;;;;;;;6250124;23;19927;-73
2023/12/10 18:32:57;;;;;;;;;;;;;;;;;;6250299;23;20343;-73
2023/12/10 18:35:24;;;;;;;;;;;;;;;;;;6254387;23;19927;-73
2023/12/10 18:38:10;;;;;;;;;;;;;;;;;;6254557;23;19978;-73
2023/12/10 18:40:37;;;;;;;;;;;;;;;;;;6252129;23;19920;-74
2023/12/10 18:43:05;;;;;;;;;;;;;;;;;;6250543;23;19920;-74
2023/12/10 18:45:35;;;;;;;;;;;;;;;;;;6251030;23;19955;-73
2023/12/10 18:48:02;;;;;;;;;;;;;;;;;;6251281;23;19923;-74
2023/12/10 18:50:29;;;;;;;;;;;;;;;;;;6250774;23;19942;-72
2023/12/10 18:52:56;;;;;;;;;;;;;;;;;;6250795;23;19919;-73
2023/12/10 18:55:23;;;;;;;;;;;;;;;;;;6250464;23;19953;-72
2023/12/10 18:57:50;;;;;;;;;;;;;;;;;;6250410;23;20355;-73
2023/12/10 19:00:17;;;;;;;;;;;;;;;;;;6250686;23;19926;-75
2023/12/10 19:02:44;;;;;;;;;;;;;;;;;;6249807;23;20258;-74
2023/12/10 19:05:11;;;;;;;;;;;;;;;;;;6249784;23;19931;-75
2023/12/10 19:07:37;;;;;;;;;;;;;;;;;;6249988;23;20358;-73
2023/12/10 19:10:04;;;;;;;;;;;;;;;;;;6249994;23;19920;-74
2023/12/10 19:12:31;;;;;;;;;;;;;;;;;;6249925;23;19919;-74
2023/12/10 19:15:00;;;;;;;;;;;;;;;;;;6248957;23;21210;-73
2023/12/10 19:17:27;;;;;;;;;;;;;;;;;;6249438;23;20306;-75
2023/12/10 19:19:54;;;;;;;;;;;;;;;;;;6251249;23;19959;-75
2023/12/10 19:22:21;;;;;;;;;;;;;;;;;;6252808;23;20255;-74
2023/12/10 19:24:48;;;;;;;;;;;;;;;;;;6251828;23;19968;-74
2023/12/10 19:27:15;;;;;;;;;;;;;;;;;;6247705;22;19919;-70
2023/12/10 19:29:42;;;;;;;;;;;;;;;;;;6249362;23;19923;-71
2023/12/10 19:32:09;;;;;;;;;;;;;;;;;;6248744;23;19920;-70
2023/12/10 19:34:36;;;;;;;;;;;;;;;;;;6248701;23;19919;-71
2023/12/10 19:37:03;;;;;;;;;;;;;;;;;;6249597;23;19920;-71
2023/12/10 19:39:30;;;;;;;;;;;;;;;;;;6249455;23;19919;-71
2023/12/10 19:41:57;;;;;;;;;;;;;;;;;;6249301;23;19919;-72
2023/12/10 19:44:24;;;;;;;;;;;;;;;;;;6248196;23;19942;-72
2023/12/10 19:46:51;;;;;;;;;;;;;;;;;;6248640;23;19920;-71
2023/12/10 19:49:20;;;;;;;;;;;;;;;;;;6248238;23;20339;-70
2023/12/10 19:51:47;;;;;;;;;;;;;;;;;;6248425;23;19947;-70
2023/12/10 19:54:14;;;;;;;;;;;;;;;;;;6248348;23;19927;-71
2023/12/10 19:56:41;;;;;;;;;;;;;;;;;;6248425;23;19920;-70
2023/12/10 19:59:08;;;;;;;;;;;;;;;;;;6248371;23;20259;-71
2023/12/10 20:01:35;;;;;;;;;;;;;;;;;;6248094;23;19920;-70
2023/12/10 20:04:03;;;;;;;;;;;;;;;;;;6248405;23;19919;-73
2023/12/10 20:06:29;;;;;;;;;;;;;;;;;;6248013;23;20227;-72
2023/12/10 20:08:56;;;;;;;;;;;;;;;;;;6247659;23;19926;-72
2023/12/10 20:11:23;;;;;;;;;;;;;;;;;;6247854;23;19923;-72
2023/12/10 20:13:50;;;;;;;;;;;;;;;;;;6247834;23;19919;-72
2023/12/10 20:16:17;;;;;;;;;;;;;;;;;;6247779;23;19920;-72
2023/12/10 20:18:45;;;;;;;;;;;;;;;;;;6247632;23;19927;-72
2023/12/10 20:21:12;;;;;;;;;;;;;;;;;;6247633;23;19919;-72
2023/12/10 20:23:38;;;;;;;;;;;;;;;;;;6247503;23;19942;-71
2023/12/10 20:26:05;;;;;;;;;;;;;;;;;;6247658;23;19927;-71
2023/12/10 20:28:32;;;;;;;;;;;;;;;;;;6247181;23;20236;-71
2023/12/10 20:30:59;;;;;;;;;;;;;;;;;;6247127;23;20335;-71
2023/12/10 20:33:26;;;;;;;;;;;;;;;;;;6247547;23;19920;-71
2023/12/10 20:35:53;;;;;;;;;;;;;;;;;;6247628;23;19946;-72
2023/12/10 20:38:20;;;;;;;;;;;;;;;;;;6247540;23;19920;-72
2023/12/10 20:40:47;;;;;;;;;;;;;;;;;;6247708;23;19927;-72
2023/12/10 20:43:14;;;;;;;;;;;;;;;;;;6247917;23;19963;-72
2023/12/10 20:45:42;;;;;;;;;;;;;;;;;;6247942;23;20262;-73
2023/12/10 20:48:10;;;;;;;;;;;;;;;;;;6247685;23;19926;-73
2023/12/10 20:50:37;;;;;;;;;;;;;;;;;;6247696;23;19919;-73
2023/12/10 20:53:04;;;;;;;;;;;;;;;;;;6247706;23;19924;-72
2023/12/10 20:55:31;;;;;;;;;;;;;;;;;;6249082;23;19920;-71
2023/12/10 20:57:58;;;;;;;;;;;;;;;;;;6252593;23;19919;-71
2023/12/10 21:00:25;;;;;;;;;;;;;;;;;;6251319;23;20343;-71
2023/12/10 21:02:51;;;;;;;;;;;;;;;;;;6254683;23;19926;-73
2023/12/10 21:05:18;;;;;;;;;;;;;;;;;;6248784;23;19924;-73
2023/12/10 21:07:45;;;;;;;;;;;;;;;;;;6247481;23;19999;-72
2023/12/10 21:10:12;;;;;;;;;;;;;;;;;;6247049;23;19920;-72
2023/12/10 21:12:39;;;;;;;;;;;;;;;;;;6247589;23;19920;-72
2023/12/10 21:15:06;;;;;;;;;;;;;;;;;;6247795;23;19926;-73
2023/12/10 21:17:33;;;;;;;;;;;;;;;;;;6247156;23;19941;-72
2023/12/10 21:20:00;;;;;;;;;;;;;;;;;;6246916;23;20394;-73
2023/12/10 21:22:27;;;;;;;;;;;;;;;;;;6247417;23;19919;-72
2023/12/10 21:24:54;;;;;;;;;;;;;;;;;;6247426;23;19924;-73
2023/12/10 21:27:21;;;;;;;;;;;;;;;;;;6246887;23;19920;-71
2023/12/10 21:29:49;;;;;;;;;;;;;;;;;;6247228;23;19919;-72
2023/12/10 21:32:16;;;;;;;;;;;;;;;;;;6247228;23;19923;-72
2023/12/10 21:34:43;;;;;;;;;;;;;;;;;;6246801;23;19926;-72
2023/12/10 21:37:11;;;;;;;;;;;;;;;;;;6246831;23;19919;-72
2023/12/10 21:39:38;;;;;;;;;;;;;;;;;;6246760;23;19928;-72
2023/12/10 21:42:05;;;;;;;;;;;;;;;;;;6246740;23;19920;-72
2023/12/10 21:44:33;;;;;;;;;;;;;;;;;;6246848;23;19919;-72
2023/12/10 21:47:00;;;;;;;;;;;;;;;;;;6247153;23;19924;-72
2023/12/10 21:49:27;;;;;;;;;;;;;;;;;;6246357;23;20258;-72
2023/12/10 21:51:55;;;;;;;;;;;;;;;;;;6246805;23;19924;-72
2023/12/10 21:54:24;;;;;;;;;;;;;;;;;;6246850;23;19920;-71
2023/12/10 21:56:51;;;;;;;;;;;;;;;;;;6246760;23;19919;-72
